createdAt,value
2018-11-27T00:02:27.325Z,4.30
2018-11-27T00:04:54.894Z,4.20
2018-11-27T00:07:22.476Z,4.20
2018-11-27T00:09:50.052Z,4.20
2018-11-27T00:12:17.600Z,4.10
2018-11-27T00:14:45.263Z,4.00
2018-11-27T00:17:12.804Z,4.10
2018-11-27T00:19:40.384Z,4.00
2018-11-27T00:22:07.928Z,4.00
2018-11-27T00:24:35.512Z,4.00
2018-11-27T00:27:03.089Z,3.90
2018-11-27T00:29:30.659Z,4.00
2018-11-27T00:31:58.969Z,3.90
2018-11-27T00:34:26.541Z,3.90
2018-11-27T00:36:54.120Z,4.00
2018-11-27T00:39:22.627Z,4.00
2018-11-27T00:41:50.964Z,4.00
2018-11-27T00:44:18.508Z,4.00
2018-11-27T00:46:47.038Z,4.00
2018-11-27T00:49:14.580Z,3.90
2018-11-27T00:51:42.159Z,3.90
2018-11-27T00:54:09.699Z,3.90
2018-11-27T00:56:39.204Z,3.90
2018-11-27T00:59:06.749Z,3.90
2018-11-27T01:01:34.337Z,3.90
2018-11-27T01:04:02.644Z,4.00
2018-11-27T01:06:30.234Z,3.90
2018-11-27T01:08:58.743Z,3.90
2018-11-27T01:11:26.337Z,3.90
2018-11-27T01:13:53.983Z,4.00
2018-11-27T01:16:22.535Z,3.90
2018-11-27T01:18:50.113Z,3.90
2018-11-27T01:21:17.701Z,4.00
2018-11-27T01:23:45.247Z,4.10
2018-11-27T01:26:12.832Z,4.10
2018-11-27T01:28:40.379Z,3.90
2018-11-27T01:31:07.961Z,4.00
2018-11-27T01:33:36.269Z,3.90
2018-11-27T01:36:03.856Z,3.90
2018-11-27T01:38:31.415Z,3.90
2018-11-27T01:40:59.000Z,3.90
2018-11-27T01:43:26.540Z,3.90
2018-11-27T01:45:54.124Z,4.00
2018-11-27T01:48:21.664Z,4.10
2018-11-27T01:50:49.237Z,4.10
2018-11-27T01:53:16.777Z,4.10
2018-11-27T01:55:44.356Z,4.10
2018-11-27T01:58:12.697Z,4.20
2018-11-27T02:00:40.248Z,4.20
2018-11-27T02:03:07.836Z,4.10
2018-11-27T02:05:35.409Z,4.10
2018-11-27T02:08:02.984Z,4.10
2018-11-27T02:10:31.302Z,4.10
2018-11-27T02:13:01.387Z,4.10
2018-11-27T02:15:28.459Z,4.10
2018-11-27T02:17:56.032Z,4.10
2018-11-27T02:20:23.572Z,4.10
2018-11-27T02:22:51.148Z,4.10
2018-11-27T02:25:18.734Z,4.10
2018-11-27T02:27:47.072Z,4.00
2018-11-27T02:30:14.625Z,4.00
2018-11-27T02:32:42.213Z,4.00
2018-11-27T02:35:09.784Z,4.00
2018-11-27T02:37:38.121Z,4.00
2018-11-27T02:40:05.684Z,4.00
2018-11-27T02:42:33.255Z,4.00
2018-11-27T02:45:00.829Z,4.00
2018-11-27T02:47:28.368Z,3.90
2018-11-27T02:49:55.944Z,3.90
2018-11-27T02:52:25.453Z,3.90
2018-11-27T02:54:53.029Z,3.90
2018-11-27T02:57:20.573Z,4.00
2018-11-27T02:59:48.157Z,3.90
2018-11-27T03:02:15.734Z,3.90
2018-11-27T03:04:45.261Z,3.90
2018-11-27T03:07:14.575Z,3.80
2018-11-27T03:09:42.159Z,3.80
2018-11-27T03:12:09.700Z,3.90
2018-11-27T03:14:37.272Z,3.80
2018-11-27T03:17:04.862Z,3.90
2018-11-27T03:19:32.432Z,3.90
2018-11-27T03:21:59.968Z,3.90
2018-11-27T03:24:27.538Z,3.90
2018-11-27T03:26:55.112Z,3.80
2018-11-27T03:29:24.633Z,3.80
2018-11-27T03:31:52.182Z,3.80
2018-11-27T03:34:19.762Z,3.80
2018-11-27T03:36:47.337Z,3.80
2018-11-27T03:39:15.646Z,3.80
2018-11-27T03:41:43.218Z,3.70
2018-11-27T03:44:10.761Z,3.80
2018-11-27T03:46:38.345Z,3.80
2018-11-27T03:49:05.885Z,3.80
2018-11-27T03:51:33.641Z,3.80
2018-11-27T03:54:02.183Z,3.80
2018-11-27T03:56:31.720Z,3.70
2018-11-27T03:58:59.303Z,3.70
2018-11-27T04:01:26.849Z,3.70
2018-11-27T04:03:54.431Z,3.80
2018-11-27T04:06:22.003Z,3.80
2018-11-27T04:08:51.545Z,3.70
2018-11-27T04:11:19.093Z,3.80
2018-11-27T04:13:46.667Z,3.80
2018-11-27T04:16:16.128Z,3.80
2018-11-27T04:18:44.471Z,3.80
2018-11-27T04:21:12.993Z,3.70
2018-11-27T04:23:40.566Z,3.80
2018-11-27T04:26:08.149Z,3.80
2018-11-27T04:28:37.668Z,3.90
2018-11-27T04:31:05.223Z,3.90
2018-11-27T04:33:33.744Z,3.90
2018-11-27T04:36:01.317Z,3.80
2018-11-27T04:38:29.622Z,3.80
2018-11-27T04:40:57.207Z,3.80
2018-11-27T04:43:24.751Z,3.80
2018-11-27T04:45:52.335Z,3.80
2018-11-27T04:48:19.882Z,3.70
2018-11-27T04:50:47.460Z,3.80
2018-11-27T04:53:15.000Z,3.80
2018-11-27T04:55:42.573Z,3.80
2018-11-27T04:58:10.111Z,3.80
2018-11-27T05:00:37.690Z,3.70
2018-11-27T05:03:06.001Z,3.60
2018-11-27T05:05:33.587Z,3.60
2018-11-27T05:08:01.137Z,3.70
2018-11-27T05:10:28.709Z,3.70
2018-11-27T05:12:56.285Z,3.70
2018-11-27T05:15:23.894Z,3.60
2018-11-27T05:17:51.476Z,3.70
2018-11-27T05:20:19.018Z,3.70
2018-11-27T05:22:46.595Z,3.70
2018-11-27T05:25:14.322Z,3.80
2018-11-27T05:27:41.861Z,3.90
2018-11-27T05:30:12.121Z,3.90
2018-11-27T05:32:39.711Z,3.90
2018-11-27T05:35:07.253Z,3.80
2018-11-27T05:37:34.791Z,3.70
2018-11-27T05:40:02.372Z,3.60
2018-11-27T05:42:29.913Z,3.70
2018-11-27T05:44:58.496Z,3.70
2018-11-27T05:47:27.000Z,3.70
2018-11-27T05:49:54.568Z,3.60
2018-11-27T05:52:22.108Z,3.60
2018-11-27T05:54:49.673Z,3.50
2018-11-27T05:57:17.228Z,3.40
2018-11-27T05:59:44.808Z,3.60
2018-11-27T06:02:12.365Z,3.60
2018-11-27T06:04:40.660Z,3.70
2018-11-27T06:07:08.230Z,3.70
2018-11-27T06:09:35.772Z,3.80
2018-11-27T06:12:03.368Z,3.80
2018-11-27T06:14:30.941Z,3.80
2018-11-27T06:16:58.487Z,3.80
2018-11-27T06:19:26.061Z,3.80
2018-11-27T06:21:53.674Z,3.90
2018-11-27T06:24:21.249Z,3.90
2018-11-27T06:26:48.812Z,3.90
2018-11-27T06:29:16.390Z,3.90
2018-11-27T06:31:43.969Z,3.90
2018-11-27T06:34:12.321Z,3.90
2018-11-27T06:36:40.866Z,3.80
2018-11-27T06:39:08.447Z,3.90
2018-11-27T06:41:36.025Z,3.90
2018-11-27T06:44:03.605Z,3.90
2018-11-27T06:46:31.148Z,3.90
2018-11-27T06:48:58.720Z,3.90
2018-11-27T06:51:26.268Z,3.90
2018-11-27T06:53:53.848Z,3.90
2018-11-27T06:56:21.389Z,3.90
2018-11-27T06:58:48.960Z,3.90
2018-11-27T07:01:16.501Z,4.00
2018-11-27T07:03:45.227Z,4.00
2018-11-27T07:06:12.763Z,3.90
2018-11-27T07:08:40.344Z,3.90
2018-11-27T07:11:07.887Z,3.90
2018-11-27T07:13:35.461Z,4.00
2018-11-27T07:16:03.002Z,4.00
2018-11-27T07:18:30.584Z,3.80
2018-11-27T07:20:58.143Z,3.80
2018-11-27T07:23:25.716Z,3.80
2018-11-27T07:25:53.309Z,3.80
2018-11-27T07:28:20.879Z,3.80
2018-11-27T07:30:48.427Z,3.80
2018-11-27T07:33:16.764Z,3.80
2018-11-27T07:35:45.297Z,3.80
2018-11-27T07:38:12.884Z,3.80
2018-11-27T07:40:40.434Z,3.90
2018-11-27T07:43:08.944Z,4.00
2018-11-27T07:45:36.531Z,4.00
2018-11-27T07:48:04.849Z,4.00
2018-11-27T07:50:32.425Z,4.00
2018-11-27T07:52:59.998Z,3.90
2018-11-27T07:55:28.313Z,4.00
2018-11-27T07:57:55.892Z,4.00
2018-11-27T08:00:23.441Z,4.00
2018-11-27T08:02:51.116Z,4.00
2018-11-27T08:05:18.656Z,4.00
2018-11-27T08:07:46.224Z,3.90
2018-11-27T08:10:13.765Z,4.00
2018-11-27T08:12:41.335Z,4.00
2018-11-27T08:15:08.889Z,4.00
2018-11-27T08:17:36.456Z,4.00
2018-11-27T08:20:04.967Z,4.00
2018-11-27T08:22:32.544Z,3.90
2018-11-27T08:25:00.085Z,3.90
2018-11-27T08:27:27.672Z,3.90
2018-11-27T08:29:55.224Z,4.00
2018-11-27T08:32:22.768Z,4.00
2018-11-27T08:34:50.353Z,3.90
2018-11-27T08:37:17.928Z,3.90
2018-11-27T08:39:45.500Z,3.90
2018-11-27T08:42:13.132Z,3.90
2018-11-27T08:44:40.707Z,3.90
2018-11-27T08:47:08.390Z,3.90
2018-11-27T08:49:35.923Z,3.90
2018-11-27T08:52:03.503Z,4.00
2018-11-27T08:54:31.049Z,4.00
2018-11-27T08:56:58.633Z,4.00
2018-11-27T08:59:26.172Z,4.10
2018-11-27T09:01:53.774Z,4.20
2018-11-27T09:04:22.085Z,4.30
2018-11-27T09:06:51.596Z,4.30
2018-11-27T09:09:19.133Z,4.30
2018-11-27T09:11:46.676Z,4.20
2018-11-27T09:14:15.018Z,4.20
2018-11-27T09:16:42.592Z,4.10
2018-11-27T09:19:10.161Z,4.20
2018-11-27T09:21:38.707Z,4.20
2018-11-27T09:24:06.281Z,4.30
2018-11-27T09:26:33.853Z,4.30
2018-11-27T09:29:03.125Z,4.20
2018-11-27T09:31:30.703Z,4.20
2018-11-27T09:33:58.244Z,4.30
2018-11-27T09:36:25.836Z,4.40
2018-11-27T09:38:54.360Z,4.30
2018-11-27T09:41:21.924Z,4.40
2018-11-27T09:43:49.511Z,4.50
2018-11-27T09:46:17.089Z,4.50
2018-11-27T09:48:44.661Z,4.60
2018-11-27T09:51:12.205Z,4.70
2018-11-27T09:53:39.781Z,4.70
2018-11-27T09:56:07.352Z,4.60
2018-11-27T09:58:34.924Z,4.40
2018-11-27T10:01:02.460Z,4.40
2018-11-27T10:03:30.034Z,4.50
2018-11-27T10:05:57.704Z,4.70
2018-11-27T10:08:26.260Z,4.80
2018-11-27T10:10:53.810Z,4.80
2018-11-27T10:13:21.386Z,4.80
2018-11-27T10:15:49.964Z,4.50
2018-11-27T10:18:17.505Z,4.60
2018-11-27T10:20:45.079Z,4.40
2018-11-27T10:23:12.628Z,4.50
2018-11-27T10:25:40.213Z,4.50
2018-11-27T10:28:07.760Z,4.50
2018-11-27T10:30:35.337Z,4.70
2018-11-27T10:33:02.878Z,5.00
2018-11-27T10:35:30.448Z,5.00
2018-11-27T10:37:58.031Z,4.80
2018-11-27T10:40:26.349Z,4.80
2018-11-27T10:42:53.989Z,4.80
2018-11-27T10:45:21.546Z,4.70
2018-11-27T10:47:49.094Z,4.70
2018-11-27T10:50:16.688Z,4.70
2018-11-27T10:52:44.229Z,4.70
2018-11-27T10:55:11.821Z,4.80
2018-11-27T10:57:39.401Z,4.70
2018-11-27T11:00:06.948Z,4.70
2018-11-27T11:02:34.574Z,4.70
2018-11-27T11:05:03.083Z,4.60
2018-11-27T11:07:30.674Z,4.50
2018-11-27T11:09:58.220Z,4.70
2018-11-27T11:12:25.796Z,4.70
2018-11-27T11:14:53.377Z,4.90
2018-11-27T11:17:20.935Z,4.70
2018-11-27T11:19:48.520Z,4.80
2018-11-27T11:22:16.060Z,4.80
2018-11-27T11:24:43.636Z,4.80
2018-11-27T11:27:11.188Z,4.80
2018-11-27T11:29:38.788Z,4.90
2018-11-27T11:32:06.369Z,4.90
2018-11-27T11:34:33.970Z,4.90
2018-11-27T11:37:01.540Z,5.00
2018-11-27T11:39:29.082Z,5.00
2018-11-27T11:41:56.657Z,5.00
2018-11-27T11:44:24.227Z,5.00
2018-11-27T11:46:52.578Z,4.90
2018-11-27T11:49:20.149Z,4.80
2018-11-27T11:51:47.697Z,4.90
2018-11-27T11:54:15.277Z,4.90
2018-11-27T11:56:44.585Z,5.00
2018-11-27T11:59:12.948Z,5.00
2018-11-27T12:01:40.490Z,5.00
2018-11-27T12:04:08.028Z,5.10
2018-11-27T12:06:35.622Z,5.20
2018-11-27T12:09:04.046Z,5.30
2018-11-27T12:11:32.615Z,5.30
2018-11-27T12:14:00.161Z,5.40
2018-11-27T12:16:28.700Z,5.20
2018-11-27T12:18:55.341Z,5.20
2018-11-27T12:21:24.006Z,5.20
2018-11-27T12:23:51.561Z,5.10
2018-11-27T12:26:19.137Z,5.20
2018-11-27T12:28:47.464Z,5.30
2018-11-27T12:31:16.024Z,5.30
2018-11-27T12:33:45.318Z,5.30
2018-11-27T12:36:12.910Z,5.30
2018-11-27T12:38:40.449Z,5.30
2018-11-27T12:41:10.186Z,5.30
2018-11-27T12:43:35.630Z,5.10
2018-11-27T12:46:05.313Z,5.10
2018-11-27T12:48:32.868Z,5.00
2018-11-27T12:51:00.454Z,5.10
2018-11-27T12:53:28.006Z,5.20
2018-11-27T12:55:55.580Z,5.20
2018-11-27T12:58:23.123Z,5.10
2018-11-27T13:00:50.668Z,5.10
2018-11-27T13:03:18.256Z,5.30
2018-11-27T13:05:46.417Z,5.20
2018-11-27T13:08:13.996Z,5.10
2018-11-27T13:10:41.580Z,5.20
2018-11-27T13:13:09.124Z,5.40
2018-11-27T13:15:36.700Z,5.50
2018-11-27T13:18:04.249Z,5.40
2018-11-27T13:20:31.838Z,5.30
2018-11-27T13:23:01.369Z,5.20
2018-11-27T13:25:28.923Z,5.30
2018-11-27T13:27:56.533Z,5.30
2018-11-27T13:30:24.082Z,5.20
2018-11-27T13:32:53.184Z,5.20
2018-11-27T13:35:20.725Z,5.10
2018-11-27T13:37:48.305Z,5.00
2018-11-27T13:40:15.862Z,5.10
2018-11-27T13:42:43.454Z,5.00
2018-11-27T13:45:11.768Z,5.10
2018-11-27T13:47:39.315Z,5.00
2018-11-27T13:50:06.901Z,5.00
2018-11-27T13:52:35.421Z,5.00
2018-11-27T13:55:03.012Z,5.00
2018-11-27T13:57:30.569Z,4.90
2018-11-27T13:59:58.125Z,5.00
2018-11-27T14:02:27.694Z,4.80
2018-11-27T14:04:55.243Z,4.80
2018-11-27T14:07:22.837Z,4.90
2018-11-27T14:09:50.386Z,4.90
2018-11-27T14:12:18.964Z,4.80
2018-11-27T14:14:46.545Z,4.80
2018-11-27T14:17:14.090Z,4.80
2018-11-27T14:19:42.507Z,4.90
2018-11-27T14:22:10.121Z,4.80
2018-11-27T14:24:37.696Z,4.80
2018-11-27T14:27:05.262Z,4.70
2018-11-27T14:29:32.936Z,4.80
2018-11-27T14:32:00.519Z,4.80
2018-11-27T14:34:28.056Z,4.90
2018-11-27T14:36:55.636Z,4.90
2018-11-27T14:39:23.189Z,4.90
2018-11-27T14:41:50.777Z,4.90
2018-11-27T14:44:19.171Z,5.00
2018-11-27T14:46:46.724Z,4.90
2018-11-27T14:49:14.312Z,4.80
2018-11-27T14:51:41.901Z,4.90
2018-11-27T14:54:09.492Z,5.00
2018-11-27T14:56:37.046Z,5.10
2018-11-27T14:59:05.767Z,5.10
2018-11-27T15:01:34.316Z,5.10
2018-11-27T15:04:02.672Z,5.10
2018-11-27T15:06:30.273Z,5.10
2018-11-27T15:08:57.822Z,5.10
2018-11-27T15:11:26.376Z,5.10
2018-11-27T15:13:53.930Z,5.00
2018-11-27T15:16:21.512Z,5.00
2018-11-27T15:18:49.077Z,5.00
2018-11-27T15:21:16.672Z,4.90
2018-11-27T15:23:44.248Z,4.80
2018-11-27T15:26:12.010Z,4.90
2018-11-27T15:28:39.595Z,4.90
2018-11-27T15:31:07.186Z,4.90
2018-11-27T15:33:34.734Z,5.00
2018-11-27T15:36:02.748Z,5.00
2018-11-27T15:38:30.298Z,5.00
2018-11-27T15:40:57.886Z,5.00
2018-11-27T15:43:25.433Z,5.10
2018-11-27T15:45:53.029Z,5.00
2018-11-27T15:48:20.576Z,5.00
2018-11-27T15:50:48.161Z,5.10
2018-11-27T15:53:15.736Z,5.20
2018-11-27T15:55:43.285Z,5.10
2018-11-27T15:58:11.844Z,5.10
2018-11-27T16:00:39.520Z,5.10
2018-11-27T16:03:07.108Z,5.10
2018-11-27T16:05:34.661Z,5.10
2018-11-27T16:08:02.236Z,5.20
2018-11-27T16:10:29.820Z,5.10
2018-11-27T16:12:57.363Z,5.20
2018-11-27T16:15:25.724Z,5.10
2018-11-27T16:17:53.282Z,5.10
2018-11-27T16:20:20.864Z,5.10
2018-11-27T16:22:48.464Z,5.10
2018-11-27T16:25:16.020Z,5.00
2018-11-27T16:27:43.568Z,5.00
2018-11-27T16:30:11.464Z,4.90
2018-11-27T16:32:39.014Z,4.90
2018-11-27T16:35:07.524Z,5.00
2018-11-27T16:37:35.111Z,5.00
2018-11-27T16:40:02.705Z,4.90
2018-11-27T16:42:30.710Z,4.90
2018-11-27T16:44:57.848Z,4.90
2018-11-27T16:47:25.434Z,4.90
2018-11-27T16:49:52.981Z,4.80
2018-11-27T16:52:20.596Z,4.70
2018-11-27T16:54:48.172Z,4.80
2018-11-27T16:57:15.723Z,4.70
2018-11-27T16:59:44.074Z,4.70
2018-11-27T17:02:11.774Z,4.70
2018-11-27T17:04:39.344Z,4.70
2018-11-27T17:07:06.897Z,4.80
2018-11-27T17:09:34.488Z,4.90
2018-11-27T17:12:02.068Z,4.90
2018-11-27T17:14:29.663Z,4.80
2018-11-27T17:16:57.207Z,4.80
2018-11-27T17:19:26.737Z,5.00
2018-11-27T17:21:54.678Z,5.00
2018-11-27T17:24:22.270Z,4.90
2018-11-27T17:26:49.830Z,4.80
2018-11-27T17:29:18.400Z,4.80
2018-11-27T17:31:45.956Z,4.80
2018-11-27T17:34:13.506Z,4.80
2018-11-27T17:36:41.088Z,4.80
2018-11-27T17:39:08.644Z,4.80
2018-11-27T17:41:36.241Z,4.80
2018-11-27T17:44:03.817Z,4.80
2018-11-27T17:46:31.364Z,4.80
2018-11-27T17:48:58.957Z,4.70
2018-11-27T17:51:27.482Z,4.70
2018-11-27T17:53:55.027Z,4.80
2018-11-27T17:56:22.607Z,4.80
2018-11-27T17:58:50.151Z,4.80
2018-11-27T18:01:17.733Z,4.80
2018-11-27T18:03:45.312Z,4.80
2018-11-27T18:06:12.858Z,4.80
2018-11-27T18:08:40.453Z,4.80
2018-11-27T18:11:08.045Z,4.70
2018-11-27T18:13:35.985Z,4.70
2018-11-27T18:16:03.212Z,4.70
2018-11-27T18:18:32.735Z,4.80
2018-11-27T18:21:00.332Z,4.70
2018-11-27T18:23:27.908Z,4.80
2018-11-27T18:25:55.465Z,4.80
2018-11-27T18:28:23.060Z,4.80
2018-11-27T18:30:51.381Z,4.80
2018-11-27T18:33:18.926Z,4.80
2018-11-27T18:35:47.282Z,4.80
2018-11-27T18:38:14.905Z,4.80
2018-11-27T18:40:42.490Z,4.80
2018-11-27T18:43:10.925Z,4.80
2018-11-27T18:45:38.468Z,4.80
2018-11-27T18:48:06.431Z,4.80
2018-11-27T18:50:34.041Z,4.70
2018-11-27T18:53:01.621Z,4.70
2018-11-27T18:55:29.712Z,4.60
2018-11-27T18:57:57.331Z,4.50
2018-11-27T19:00:24.917Z,4.60
2018-11-27T19:02:52.488Z,4.60
2018-11-27T19:05:21.005Z,4.70
2018-11-27T19:07:48.582Z,4.60
2018-11-27T19:10:17.199Z,4.60
2018-11-27T19:12:46.712Z,4.60
2018-11-27T19:15:14.268Z,4.60
2018-11-27T19:17:41.849Z,4.60
2018-11-27T19:20:09.405Z,4.70
2018-11-27T19:22:36.979Z,4.60
2018-11-27T19:25:04.524Z,4.60
2018-11-27T19:27:32.108Z,4.60
2018-11-27T19:30:00.838Z,4.60
2018-11-27T19:32:28.400Z,4.60
2018-11-27T19:34:55.945Z,4.60
2018-11-27T19:37:23.563Z,4.60
2018-11-27T19:39:51.105Z,4.60
2018-11-27T19:42:18.693Z,4.60
2018-11-27T19:44:47.008Z,4.50
2018-11-27T19:47:15.573Z,4.50
2018-11-27T19:49:43.245Z,4.40
2018-11-27T19:52:11.788Z,4.50
2018-11-27T19:54:39.369Z,4.50
2018-11-27T19:57:07.143Z,4.50
2018-11-27T19:59:34.701Z,4.50
2018-11-27T20:02:02.300Z,4.50
2018-11-27T20:04:29.860Z,4.50
2018-11-27T20:06:57.451Z,4.50
2018-11-27T20:09:24.999Z,4.50
2018-11-27T20:11:53.324Z,4.50
2018-11-27T20:14:20.925Z,4.40
2018-11-27T20:16:48.510Z,4.40
2018-11-27T20:19:16.093Z,4.50
2018-11-27T20:21:43.635Z,4.50
2018-11-27T20:24:11.211Z,4.50
2018-11-27T20:26:38.796Z,4.50
2018-11-27T20:29:06.345Z,4.60
2018-11-27T20:31:33.893Z,4.60
2018-11-27T20:34:01.485Z,4.60
2018-11-27T20:36:29.069Z,4.60
2018-11-27T20:38:56.612Z,4.70
2018-11-27T20:41:24.963Z,4.60
2018-11-27T20:43:52.508Z,4.60
2018-11-27T20:46:20.092Z,4.60
2018-11-27T20:48:47.646Z,4.60
2018-11-27T20:51:15.957Z,4.60
2018-11-27T20:53:43.541Z,4.60
2018-11-27T20:56:11.128Z,4.60
2018-11-27T20:58:38.709Z,4.60
2018-11-27T21:01:06.286Z,4.60
2018-11-27T21:03:33.869Z,4.50
2018-11-27T21:06:02.436Z,4.50
2018-11-27T21:08:30.013Z,4.50
2018-11-27T21:10:57.563Z,4.50
2018-11-27T21:13:25.136Z,4.50
2018-11-27T21:15:54.840Z,4.50
2018-11-27T21:18:22.425Z,4.40
2018-11-27T21:20:49.973Z,4.50
2018-11-27T21:23:17.565Z,4.60
2018-11-27T21:25:45.153Z,4.70
2018-11-27T21:28:12.742Z,4.60
2018-11-27T21:30:40.297Z,4.60
2018-11-27T21:33:07.884Z,4.50
2018-11-27T21:35:35.515Z,4.50
2018-11-27T21:38:05.044Z,4.40
2018-11-27T21:40:33.356Z,4.40
2018-11-27T21:43:00.950Z,4.40
2018-11-27T21:45:28.677Z,4.40
2018-11-27T21:47:56.227Z,4.40
2018-11-27T21:50:24.784Z,4.40
2018-11-27T21:52:52.340Z,4.30
2018-11-27T21:55:19.925Z,4.40
2018-11-27T21:57:47.718Z,4.30
2018-11-27T22:00:16.314Z,4.30
2018-11-27T22:02:43.858Z,4.30
2018-11-27T22:05:11.585Z,4.20
2018-11-27T22:07:39.132Z,4.20
2018-11-27T22:10:06.680Z,4.20
2018-11-27T22:12:34.262Z,4.30
2018-11-27T22:15:01.838Z,4.30
2018-11-27T22:17:29.396Z,4.30
2018-11-27T22:19:57.005Z,4.30
2018-11-27T22:22:25.336Z,4.40
2018-11-27T22:24:53.558Z,4.30
2018-11-27T22:27:21.174Z,4.40
2018-11-27T22:29:48.732Z,4.40
2018-11-27T22:32:16.317Z,4.40
2018-11-27T22:34:43.897Z,4.30
2018-11-27T22:37:11.516Z,4.30
2018-11-27T22:39:39.108Z,4.30
2018-11-27T22:42:06.663Z,4.30
2018-11-27T22:44:35.165Z,4.30
2018-11-27T22:47:03.726Z,4.20
2018-11-27T22:49:31.347Z,4.30
2018-11-27T22:51:58.906Z,4.40
2018-11-27T22:54:26.483Z,4.30
2018-11-27T22:56:54.034Z,4.30
2018-11-27T22:59:21.613Z,4.30
2018-11-27T23:01:49.191Z,4.30
2018-11-27T23:04:16.779Z,4.30
2018-11-27T23:06:44.325Z,4.30
2018-11-27T23:09:11.902Z,4.30
2018-11-27T23:11:39.444Z,4.30
2018-11-27T23:14:08.005Z,4.20
2018-11-27T23:16:36.530Z,4.20
2018-11-27T23:19:04.113Z,4.20
2018-11-27T23:21:31.670Z,4.20
2018-11-27T23:23:59.985Z,4.20
2018-11-27T23:26:28.522Z,4.10
2018-11-27T23:28:56.085Z,4.10
2018-11-27T23:31:23.664Z,4.10
2018-11-27T23:33:51.218Z,4.10
2018-11-27T23:36:18.817Z,4.10
2018-11-27T23:38:46.359Z,4.10
2018-11-27T23:41:13.901Z,4.00
2018-11-27T23:43:41.533Z,4.00
2018-11-27T23:46:09.900Z,4.10
2018-11-27T23:48:38.368Z,4.10
2018-11-27T23:51:06.390Z,4.00
2018-11-27T23:53:33.953Z,4.10
2018-11-27T23:56:01.541Z,4.10
2018-11-27T23:58:29.085Z,4.00
